Time;durP1;ratioP1;P1;durP2;ratioP2;P2;SDS_P1;SDS_P2;PMS_P1;PMS_P2;Temp;Humidity;BMP_temperature;BMP_pressure;BME280_temperature;BME280_humidity;BME280_pressure;Samples;Min_cycle;Max_cycle;Signal;HPM_P1;HPM_P2
2021/06/19 00:02:26;;;;;;;46.50;39.88;;;;;;;;;;5012842;28;20085;-62
2021/06/19 00:05:12;;;;;;;48.45;40.97;;;;;;;;;;5013564;28;20053;-62
2021/06/19 00:07:57;;;;;;;48.38;37.83;;;;;;;;;;5013543;28;20420;-62
2021/06/19 00:10:42;;;;;;;41.50;35.70;;;;;;;;;;5013396;28;20049;-62
2021/06/19 00:13:28;;;;;;;46.15;38.35;;;;;;;;;;5011803;28;20053;-63
2021/06/19 00:16:13;;;;;;;44.70;38.03;;;;;;;;;;4994062;28;20050;-63
2021/06/19 00:19:01;;;;;;;47.88;39.90;;;;;;;;;;4993845;28;20520;-62
2021/06/19 00:21:46;;;;;;;46.58;40.35;;;;;;;;;;4994257;28;20053;-62
2021/06/19 00:24:38;;;;;;;59.45;43.42;;;;;;;;;;5013459;28;20046;-63
2021/06/19 00:27:23;;;;;;;51.13;41.42;;;;;;;;;;5013605;28;20108;-62
2021/06/19 00:30:09;;;;;;;51.55;43.83;;;;;;;;;;5013137;28;20061;-62
2021/06/19 00:32:54;;;;;;;51.67;44.42;;;;;;;;;;5012370;28;20103;-62
2021/06/19 00:35:39;;;;;;;60.15;47.80;;;;;;;;;;5013181;28;20177;-62
2021/06/19 00:38:25;;;;;;;62.63;47.35;;;;;;;;;;5013013;28;20103;-62
2021/06/19 00:41:10;;;;;;;54.50;46.08;;;;;;;;;;5012968;28;20052;-62
2021/06/19 00:43:55;;;;;;;68.03;50.60;;;;;;;;;;5012199;28;20073;-62
2021/06/19 00:46:41;;;;;;;67.03;51.17;;;;;;;;;;5012880;28;20056;-63
2021/06/19 00:49:27;;;;;;;70.85;53.45;;;;;;;;;;5012186;28;20053;-62
2021/06/19 00:52:12;;;;;;;69.18;53.72;;;;;;;;;;5012884;28;20060;-62
2021/06/19 00:54:57;;;;;;;69.55;53.33;;;;;;;;;;5011895;28;20052;-63
2021/06/19 00:57:42;;;;;;;67.82;52.50;;;;;;;;;;5012943;28;20053;-62
2021/06/19 01:00:28;;;;;;;66.35;52.22;;;;;;;;;;5012562;28;20420;-62
2021/06/19 01:03:13;;;;;;;73.65;52.42;;;;;;;;;;5051834;23;20064;-62
2021/06/19 01:05:58;;;;;;;72.22;52.33;;;;;;;;;;5014053;28;20048;-63
2021/06/19 01:08:43;;;;;;;71.55;50.92;;;;;;;;;;5017073;28;20492;-63
2021/06/19 01:11:30;;;;;;;73.05;52.60;;;;;;;;;;5014048;28;20103;-63
2021/06/19 01:14:16;;;;;;;73.35;54.13;;;;;;;;;;5016194;28;20092;-62
2021/06/19 01:17:02;;;;;;;83.45;56.47;;;;;;;;;;5017493;28;20050;-62
2021/06/19 01:19:58;;;;;;;72.32;53.78;;;;;;;;;;5014979;28;20042;-62
2021/06/19 01:22:45;;;;;;;80.10;58.10;;;;;;;;;;5015700;28;20459;-62
2021/06/19 01:25:33;;;;;;;88.13;62.40;;;;;;;;;;5015738;28;20046;-62
2021/06/19 01:28:19;;;;;;;90.43;63.20;;;;;;;;;;5018334;28;20053;-62
2021/06/19 01:31:04;;;;;;;87.05;63.83;;;;;;;;;;5012992;28;20056;-62
2021/06/19 01:33:50;;;;;;;89.63;65.90;;;;;;;;;;5018672;28;20049;-61
2021/06/19 01:36:36;;;;;;;90.65;64.40;;;;;;;;;;5018981;28;20042;-63
2021/06/19 01:39:22;;;;;;;75.63;59.20;;;;;;;;;;5015744;28;20044;-62
2021/06/19 01:42:07;;;;;;;83.82;61.67;;;;;;;;;;5013675;28;20567;-62
2021/06/19 01:44:52;;;;;;;82.40;61.25;;;;;;;;;;5015922;28;20080;-62
2021/06/19 01:47:38;;;;;;;83.00;61.58;;;;;;;;;;5016393;28;20061;-61
2021/06/19 01:50:24;;;;;;;84.80;62.58;;;;;;;;;;5017762;28;20049;-62
2021/06/19 01:53:09;;;;;;;83.18;62.40;;;;;;;;;;5015395;28;20053;-62
2021/06/19 01:55:54;;;;;;;74.40;59.47;;;;;;;;;;5017605;28;20526;-62
2021/06/19 01:58:39;;;;;;;76.07;59.95;;;;;;;;;;5018016;28;20415;-62
2021/06/19 02:01:25;;;;;;;80.07;62.08;;;;;;;;;;5020457;28;20104;-62
2021/06/19 02:04:10;;;;;;;87.35;61.78;;;;;;;;;;4981919;28;20049;-61
2021/06/19 02:06:56;;;;;;;81.68;60.00;;;;;;;;;;4981197;28;20054;-62
2021/06/19 02:09:41;;;;;;;88.88;64.50;;;;;;;;;;4981649;28;20038;-62
2021/06/19 02:12:26;;;;;;;80.05;60.45;;;;;;;;;;4988140;28;20566;-62
2021/06/19 02:15:12;;;;;;;78.22;59.92;;;;;;;;;;5019705;28;20052;-62
2021/06/19 02:17:57;;;;;;;76.95;56.83;;;;;;;;;;5019795;28;20046;-62
2021/06/19 02:20:43;;;;;;;69.40;54.67;;;;;;;;;;5020325;28;20153;-62
2021/06/19 02:23:28;;;;;;;69.03;55.05;;;;;;;;;;5019014;28;20404;-62
2021/06/19 02:26:13;;;;;;;64.13;50.10;;;;;;;;;;5020692;28;20072;-62
2021/06/19 02:28:58;;;;;;;58.13;49.40;;;;;;;;;;5020680;28;20048;-62
2021/06/19 02:31:44;;;;;;;57.15;47.67;;;;;;;;;;5021247;28;20072;-62
2021/06/19 02:34:29;;;;;;;52.80;46.05;;;;;;;;;;5017700;28;20052;-62
2021/06/19 02:37:15;;;;;;;45.45;40.45;;;;;;;;;;5020899;28;20076;-62
2021/06/19 02:40:00;;;;;;;39.58;34.92;;;;;;;;;;5019719;28;20054;-62
2021/06/19 02:42:45;;;;;;;38.17;34.03;;;;;;;;;;5019517;28;20455;-62
2021/06/19 02:45:31;;;;;;;31.00;28.00;;;;;;;;;;5000506;28;20057;-62
2021/06/19 02:48:16;;;;;;;29.67;26.73;;;;;;;;;;5000981;28;20048;-62
2021/06/19 02:51:01;;;;;;;29.92;26.88;;;;;;;;;;4999658;28;20129;-61
2021/06/19 02:53:47;;;;;;;29.65;26.73;;;;;;;;;;5004886;28;20038;-62
2021/06/19 02:56:32;;;;;;;29.30;26.25;;;;;;;;;;5019036;28;20064;-62
2021/06/19 02:59:17;;;;;;;30.75;27.55;;;;;;;;;;5018342;28;20081;-61
2021/06/19 03:02:03;;;;;;;28.58;25.55;;;;;;;;;;5019602;28;20130;-62
2021/06/19 03:04:51;;;;;;;27.70;24.92;;;;;;;;;;5017824;28;20053;-62
2021/06/19 03:07:36;;;;;;;28.42;25.73;;;;;;;;;;5019680;28;20046;-62
2021/06/19 03:10:22;;;;;;;28.73;25.83;;;;;;;;;;5019279;28;20512;-62
2021/06/19 03:13:08;;;;;;;29.13;26.02;;;;;;;;;;5019391;28;20041;-62
2021/06/19 03:15:53;;;;;;;26.77;23.92;;;;;;;;;;5017657;28;20046;-62
2021/06/19 03:18:39;;;;;;;26.02;23.58;;;;;;;;;;5018453;28;20057;-62
2021/06/19 03:21:25;;;;;;;27.10;24.10;;;;;;;;;;5019645;28;20072;-62
2021/06/19 03:24:10;;;;;;;26.20;23.60;;;;;;;;;;5018058;28;20416;-61
2021/06/19 03:26:56;;;;;;;26.02;23.52;;;;;;;;;;4976822;28;20118;-61
2021/06/19 03:29:41;;;;;;;25.30;22.90;;;;;;;;;;4975359;28;20054;-62
2021/06/19 03:32:26;;;;;;;24.75;21.90;;;;;;;;;;4975733;28;20047;-62
2021/06/19 03:35:12;;;;;;;23.02;20.92;;;;;;;;;;4985255;28;20042;-62
2021/06/19 03:37:57;;;;;;;24.95;22.42;;;;;;;;;;5014461;28;20050;-62
2021/06/19 03:40:43;;;;;;;23.60;21.10;;;;;;;;;;5014080;28;20054;-62
2021/06/19 03:43:28;;;;;;;23.83;21.55;;;;;;;;;;5014063;28;20061;-62
2021/06/19 03:46:14;;;;;;;22.58;19.98;;;;;;;;;;5012558;28;20049;-62
2021/06/19 03:48:59;;;;;;;22.35;20.05;;;;;;;;;;5027060;28;20164;-62
2021/06/19 03:51:44;;;;;;;22.27;19.98;;;;;;;;;;5014003;28;20181;-61
2021/06/19 03:54:30;;;;;;;21.08;19.15;;;;;;;;;;5013892;28;20535;-62
2021/06/19 03:57:25;;;;;;;20.83;18.67;;;;;;;;;;5012514;28;20419;-61
2021/06/19 04:00:12;;;;;;;22.15;19.95;;;;;;;;;;5013713;28;20056;-62
2021/06/19 04:03:02;;;;;;;21.38;19.25;;;;;;;;;;5013738;28;20069;-62
2021/06/19 04:05:48;;;;;;;21.70;19.33;;;;;;;;;;5012125;28;20083;-62
2021/06/19 04:08:33;;;;;;;22.75;20.40;;;;;;;;;;5012802;28;20053;-62
2021/06/19 04:11:18;;;;;;;20.63;18.48;;;;;;;;;;5013568;28;20050;-62
2021/06/19 04:14:04;;;;;;;21.40;19.30;;;;;;;;;;5013757;28;20041;-62
2021/06/19 04:16:49;;;;;;;21.25;19.25;;;;;;;;;;5011975;28;20137;-62
2021/06/19 04:19:36;;;;;;;21.08;19.08;;;;;;;;;;5013442;28;20062;-62
2021/06/19 04:22:22;;;;;;;23.38;20.92;;;;;;;;;;5013355;28;20192;-62
2021/06/19 04:25:08;;;;;;;21.00;18.98;;;;;;;;;;5013059;28;20412;-62
2021/06/19 04:27:54;;;;;;;21.08;19.00;;;;;;;;;;5011673;28;20053;-62
2021/06/19 04:30:39;;;;;;;21.17;19.00;;;;;;;;;;4973954;28;20525;-62
2021/06/19 04:33:24;;;;;;;22.35;19.95;;;;;;;;;;4974203;28;20053;-62
2021/06/19 04:36:12;;;;;;;22.60;20.33;;;;;;;;;;4974201;28;20141;-62
2021/06/19 04:38:57;;;;;;;21.83;19.63;;;;;;;;;;5010760;28;20393;-62
2021/06/19 04:47:13;;;;;;;22.88;20.60;;;;;;;;;;5011262;28;20129;-62
2021/06/19 04:49:59;;;;;;;23.15;20.17;;;;;;;;;;5012689;28;20499;-63
2021/06/19 04:52:45;;;;;;;21.90;19.80;;;;;;;;;;5013050;28;20052;-63
2021/06/19 04:55:31;;;;;;;21.23;19.17;;;;;;;;;;5012875;28;20117;-62
2021/06/19 04:58:16;;;;;;;21.10;19.10;;;;;;;;;;5009109;28;20049;-63
2021/06/19 05:01:02;;;;;;;22.23;19.95;;;;;;;;;;5012434;28;20050;-62
2021/06/19 05:03:47;;;;;;;23.45;21.00;;;;;;;;;;5012696;28;20056;-62
2021/06/19 05:06:32;;;;;;;23.80;21.33;;;;;;;;;;5012708;28;20046;-62
2021/06/19 05:09:17;;;;;;;25.90;22.75;;;;;;;;;;5010983;28;20042;-62
2021/06/19 05:12:03;;;;;;;27.10;22.10;;;;;;;;;;5012708;28;20048;-62
2021/06/19 05:14:48;;;;;;;25.63;23.15;;;;;;;;;;5013551;28;20053;-62
2021/06/19 05:17:34;;;;;;;25.77;23.20;;;;;;;;;;5013887;28;20057;-61
2021/06/19 05:20:20;;;;;;;27.27;24.48;;;;;;;;;;5010851;28;20053;-62
2021/06/19 05:23:09;;;;;;;23.60;21.13;;;;;;;;;;5012523;28;20056;-62
2021/06/19 05:25:54;;;;;;;28.52;23.30;;;;;;;;;;5012266;28;20105;-63
2021/06/19 05:28:40;;;;;;;28.02;23.75;;;;;;;;;;5011452;28;20448;-62
2021/06/19 05:31:26;;;;;;;25.55;22.85;;;;;;;;;;5013987;28;20061;-63
2021/06/19 05:34:12;;;;;;;25.40;21.77;;;;;;;;;;5013245;28;20050;-62
2021/06/19 05:36:57;;;;;;;27.95;23.98;;;;;;;;;;5012375;28;20046;-62
2021/06/19 05:39:42;;;;;;;25.23;22.55;;;;;;;;;;5011149;28;20574;-62
2021/06/19 05:42:28;;;;;;;23.67;21.17;;;;;;;;;;5001007;28;20572;-63
2021/06/19 05:45:14;;;;;;;25.02;21.65;;;;;;;;;;4992013;28;20053;-62
2021/06/19 05:47:59;;;;;;;27.55;22.23;;;;;;;;;;4990212;28;20124;-61
2021/06/19 05:50:44;;;;;;;25.05;22.60;;;;;;;;;;4993155;28;20049;-63
2021/06/19 05:53:29;;;;;;;23.25;20.77;;;;;;;;;;4974490;28;20165;-62
2021/06/19 05:56:15;;;;;;;22.42;20.05;;;;;;;;;;4973421;28;20054;-61
2021/06/19 05:59:00;;;;;;;22.08;19.85;;;;;;;;;;4973053;28;20090;-62
2021/06/19 06:01:46;;;;;;;20.90;18.77;;;;;;;;;;4992057;28;20047;-63
2021/06/19 06:04:32;;;;;;;20.25;18.25;;;;;;;;;;4989472;28;20043;-63
2021/06/19 06:07:17;;;;;;;20.60;18.40;;;;;;;;;;4990642;28;20129;-63
2021/06/19 06:10:03;;;;;;;20.20;18.20;;;;;;;;;;4991251;28;20502;-63
2021/06/19 06:12:48;;;;;;;20.20;18.02;;;;;;;;;;4991110;28;20050;-63
2021/06/19 06:15:33;;;;;;;21.80;18.45;;;;;;;;;;4990026;28;20132;-63
2021/06/19 06:18:19;;;;;;;20.27;18.25;;;;;;;;;;4992307;28;20144;-63
2021/06/19 06:21:05;;;;;;;19.95;17.95;;;;;;;;;;5011627;28;20045;-63
2021/06/19 06:23:50;;;;;;;19.88;17.83;;;;;;;;;;5011814;28;20050;-63
2021/06/19 06:26:36;;;;;;;22.10;19.80;;;;;;;;;;5011806;28;20109;-63
2021/06/19 06:29:21;;;;;;;22.35;19.98;;;;;;;;;;5010255;28;20137;-63
2021/06/19 06:32:07;;;;;;;25.92;20.88;;;;;;;;;;5011787;28;20061;-63
2021/06/19 06:34:52;;;;;;;24.08;20.50;;;;;;;;;;5012093;28;20136;-63
2021/06/19 06:37:38;;;;;;;24.55;19.73;;;;;;;;;;5011851;28;20046;-63
2021/06/19 06:40:23;;;;;;;26.15;21.83;;;;;;;;;;5009884;28;20571;-63
2021/06/19 06:43:09;;;;;;;26.70;20.58;;;;;;;;;;5011735;28;20822;-63
2021/06/19 06:45:54;;;;;;;23.00;20.23;;;;;;;;;;5001935;28;20052;-63
2021/06/19 06:48:39;;;;;;;25.20;20.75;;;;;;;;;;4994076;28;20058;-63
2021/06/19 06:51:25;;;;;;;24.38;21.17;;;;;;;;;;4993488;28;20523;-63
2021/06/19 06:54:10;;;;;;;24.92;20.83;;;;;;;;;;4992609;28;20116;-63
2021/06/19 06:56:56;;;;;;;22.40;19.15;;;;;;;;;;4994564;28;20053;-63
2021/06/19 06:59:41;;;;;;;25.65;19.05;;;;;;;;;;4993603;28;20137;-63
2021/06/19 07:02:28;;;;;;;22.10;19.10;;;;;;;;;;4994559;28;20042;-62
2021/06/19 07:05:16;;;;;;;29.58;20.73;;;;;;;;;;5005412;23;20070;-66
2021/06/19 07:08:01;;;;;;;21.75;19.40;;;;;;;;;;4982583;28;20045;-66
2021/06/19 07:10:47;;;;;;;25.88;20.45;;;;;;;;;;4982495;28;20049;-65
2021/06/19 07:13:32;;;;;;;29.73;21.67;;;;;;;;;;4984254;28;20053;-65
2021/06/19 07:16:17;;;;;;;26.77;21.63;;;;;;;;;;4985349;28;20122;-65
2021/06/19 07:19:03;;;;;;;27.73;20.83;;;;;;;;;;4984128;28;20085;-65
2021/06/19 07:21:49;;;;;;;28.77;21.55;;;;;;;;;;4983292;28;20046;-65
2021/06/19 07:24:34;;;;;;;27.08;21.83;;;;;;;;;;4984543;28;20125;-65
2021/06/19 07:27:19;;;;;;;24.88;18.42;;;;;;;;;;4984674;28;20046;-66
2021/06/19 07:30:08;;;;;;;27.17;21.33;;;;;;;;;;4984049;28;20046;-65
2021/06/19 07:32:55;;;;;;;28.33;21.05;;;;;;;;;;4984329;28;20070;-65
2021/06/19 07:35:40;;;;;;;27.63;21.55;;;;;;;;;;4985330;28;20045;-65
2021/06/19 07:38:28;;;;;;;30.67;24.80;;;;;;;;;;4982099;28;20053;-65
2021/06/19 07:41:13;;;;;;;26.83;21.63;;;;;;;;;;4984109;28;20097;-65
2021/06/19 07:43:58;;;;;;;27.20;22.70;;;;;;;;;;4985131;28;20097;-65
2021/06/19 07:46:46;;;;;;;26.58;20.80;;;;;;;;;;4981331;28;20054;-65
2021/06/19 07:49:32;;;;;;;25.35;20.60;;;;;;;;;;4982031;28;20583;-64
2021/06/19 07:52:17;;;;;;;27.77;22.35;;;;;;;;;;4984832;28;21015;-65
2021/06/19 07:55:02;;;;;;;29.92;22.35;;;;;;;;;;4980624;28;20046;-64
2021/06/19 07:57:47;;;;;;;32.53;22.50;;;;;;;;;;4981850;28;20074;-65
2021/06/19 08:00:33;;;;;;;29.90;22.27;;;;;;;;;;4982012;28;20049;-64
2021/06/19 08:03:18;;;;;;;30.60;24.08;;;;;;;;;;4984684;28;20049;-65
2021/06/19 08:06:04;;;;;;;34.85;24.48;;;;;;;;;;4980642;28;20045;-65
2021/06/19 08:08:49;;;;;;;32.97;24.17;;;;;;;;;;4982011;28;20045;-64
2021/06/19 08:11:34;;;;;;;33.10;25.13;;;;;;;;;;4983469;28;20058;-64
2021/06/19 08:14:21;;;;;;;32.50;24.85;;;;;;;;;;4984622;28;20056;-64
2021/06/19 08:17:23;;;;;;;29.52;23.73;;;;;;;;;;4981646;28;20051;-65
2021/06/19 08:20:09;;;;;;;29.08;25.33;;;;;;;;;;4979456;28;20053;-64
2021/06/19 08:22:54;;;;;;;29.33;22.65;;;;;;;;;;4983298;28;20054;-65
2021/06/19 08:25:39;;;;;;;27.13;23.35;;;;;;;;;;4984308;28;20054;-65
2021/06/19 08:28:25;;;;;;;30.30;22.20;;;;;;;;;;4982428;28;20057;-65
2021/06/19 08:31:10;;;;;;;25.88;21.30;;;;;;;;;;4979897;28;20046;-65
2021/06/19 08:33:55;;;;;;;22.95;19.85;;;;;;;;;;4983607;28;20141;-65
2021/06/19 08:36:41;;;;;;;25.35;20.92;;;;;;;;;;4984271;28;20034;-65
2021/06/19 08:39:26;;;;;;;26.42;22.67;;;;;;;;;;4978664;28;20043;-65
2021/06/19 08:42:12;;;;;;;23.25;19.90;;;;;;;;;;4983787;28;20043;-65
2021/06/19 08:44:58;;;;;;;25.48;20.77;;;;;;;;;;4983573;28;20049;-65
2021/06/19 08:47:44;;;;;;;22.45;20.15;;;;;;;;;;4979862;28;20042;-65
2021/06/19 08:50:29;;;;;;;22.52;20.13;;;;;;;;;;4978785;28;20052;-65
2021/06/19 08:53:16;;;;;;;19.80;17.75;;;;;;;;;;4982909;28;20050;-65
2021/06/19 08:56:02;;;;;;;16.77;14.98;;;;;;;;;;4980812;28;20061;-65
2021/06/19 08:58:47;;;;;;;14.95;12.95;;;;;;;;;;4980734;28;20058;-65
2021/06/19 09:01:32;;;;;;;15.05;13.50;;;;;;;;;;4979071;28;20072;-65
2021/06/19 09:04:17;;;;;;;16.90;15.13;;;;;;;;;;4982141;28;20062;-65
2021/06/19 09:07:03;;;;;;;16.60;14.05;;;;;;;;;;4983292;28;20049;-65
2021/06/19 09:09:48;;;;;;;17.15;14.27;;;;;;;;;;4982891;28;20050;-66
2021/06/19 09:12:34;;;;;;;17.17;15.38;;;;;;;;;;4971319;28;20046;-66
2021/06/19 09:15:19;;;;;;;16.80;14.95;;;;;;;;;;4983125;28;20049;-66
2021/06/19 09:18:04;;;;;;;20.90;18.65;;;;;;;;;;4986331;28;20170;-66
2021/06/19 09:20:55;;;;;;;19.30;17.33;;;;;;;;;;4984106;28;20070;-66
2021/06/19 09:23:45;;;;;;;18.55;16.65;;;;;;;;;;4981213;28;20053;-66
2021/06/19 09:26:32;;;;;;;20.77;17.77;;;;;;;;;;4977309;28;20572;-66
2021/06/19 09:29:18;;;;;;;21.10;18.88;;;;;;;;;;4981283;28;20428;-66
2021/06/19 09:32:03;;;;;;;23.02;19.05;;;;;;;;;;4981086;28;20527;-66
2021/06/19 09:34:50;;;;;;;23.48;20.65;;;;;;;;;;4981930;28;20116;-65
2021/06/19 09:37:39;;;;;;;22.58;19.27;;;;;;;;;;4984801;28;20073;-65
2021/06/19 09:40:24;;;;;;;25.23;21.48;;;;;;;;;;4982043;28;20058;-66
2021/06/19 09:43:12;;;;;;;23.65;21.10;;;;;;;;;;4973232;28;20629;-65
2021/06/19 09:46:00;;;;;;;26.15;20.85;;;;;;;;;;4971213;28;20053;-66
2021/06/19 09:48:48;;;;;;;27.42;22.88;;;;;;;;;;4972171;28;20508;-66
2021/06/19 09:51:33;;;;;;;25.27;22.52;;;;;;;;;;4972951;28;20046;-65
2021/06/19 09:54:21;;;;;;;25.13;22.05;;;;;;;;;;4972182;28;20055;-66
2021/06/19 09:57:08;;;;;;;25.27;22.52;;;;;;;;;;4973086;28;20053;-66
2021/06/19 10:00:00;;;;;;;27.33;22.55;;;;;;;;;;4972921;28;20432;-65
2021/06/19 10:02:45;;;;;;;28.73;24.13;;;;;;;;;;4972162;28;20046;-65
2021/06/19 10:05:31;;;;;;;27.73;24.77;;;;;;;;;;4972301;28;20310;-66
2021/06/19 10:08:16;;;;;;;24.38;21.85;;;;;;;;;;4973332;28;20070;-65
2021/06/19 10:11:01;;;;;;;24.60;22.10;;;;;;;;;;4971801;28;20166;-66
2021/06/19 10:13:47;;;;;;;24.88;22.35;;;;;;;;;;4972994;28;20536;-66
2021/06/19 10:16:32;;;;;;;23.17;20.67;;;;;;;;;;4972185;28;20514;-66
2021/06/19 10:19:19;;;;;;;22.42;20.15;;;;;;;;;;4973324;28;20132;-65
2021/06/19 10:22:04;;;;;;;23.13;20.65;;;;;;;;;;4974283;28;20057;-66
2021/06/19 10:24:51;;;;;;;23.77;21.38;;;;;;;;;;4975506;28;20046;-65
2021/06/19 10:27:37;;;;;;;22.52;20.13;;;;;;;;;;4975508;28;20567;-66
2021/06/19 10:30:23;;;;;;;20.13;18.23;;;;;;;;;;4975359;28;20055;-66
2021/06/19 10:33:27;;;;;;;21.48;19.23;;;;;;;;;;4975560;28;20062;-66
2021/06/19 10:36:13;;;;;;;20.67;18.52;;;;;;;;;;4965361;28;20050;-65
2021/06/19 10:38:58;;;;;;;20.92;19.02;;;;;;;;;;4965605;28;20082;-65
2021/06/19 10:41:44;;;;;;;19.35;17.65;;;;;;;;;;4964694;28;20170;-66
2021/06/19 10:44:48;;;;;;;19.73;17.80;;;;;;;;;;4981785;28;20038;-65
2021/06/19 10:47:34;;;;;;;20.58;18.65;;;;;;;;;;4985123;28;20514;-66
2021/06/19 10:50:23;;;;;;;17.75;16.15;;;;;;;;;;4975103;28;20061;-66
2021/06/19 10:53:14;;;;;;;18.40;16.50;;;;;;;;;;4983317;28;20058;-66
2021/06/19 10:55:59;;;;;;;18.00;16.50;;;;;;;;;;4979832;28;20055;-65
2021/06/19 10:58:44;;;;;;;18.88;17.27;;;;;;;;;;4983487;28;20056;-65
2021/06/19 11:01:33;;;;;;;19.63;17.83;;;;;;;;;;4984053;28;20072;-65
2021/06/19 11:04:38;;;;;;;19.60;17.65;;;;;;;;;;4992268;28;20042;-65
2021/06/19 11:07:23;;;;;;;19.77;18.05;;;;;;;;;;4988223;28;20401;-65
2021/06/19 11:10:09;;;;;;;18.35;16.55;;;;;;;;;;4988110;28;20069;-65
2021/06/19 11:12:54;;;;;;;16.63;15.15;;;;;;;;;;4982788;28;20053;-65
2021/06/19 11:15:39;;;;;;;20.00;18.17;;;;;;;;;;4975703;28;20055;-65
2021/06/19 11:18:43;;;;;;;19.73;17.92;;;;;;;;;;4974148;28;20083;-65
2021/06/19 11:21:30;;;;;;;19.13;17.13;;;;;;;;;;4975461;28;20050;-65
2021/06/19 11:24:15;;;;;;;16.58;14.95;;;;;;;;;;4978030;28;20049;-65
2021/06/19 11:27:01;;;;;;;16.63;15.13;;;;;;;;;;4981211;28;20043;-65
2021/06/19 11:29:46;;;;;;;14.35;13.13;;;;;;;;;;4984768;28;20042;-64
2021/06/19 11:32:32;;;;;;;16.52;15.00;;;;;;;;;;4985741;28;20140;-65
2021/06/19 11:35:21;;;;;;;17.20;15.57;;;;;;;;;;4981339;28;20120;-65
2021/06/19 11:38:06;;;;;;;15.57;14.18;;;;;;;;;;4981821;28;20077;-65
2021/06/19 11:40:52;;;;;;;15.35;13.90;;;;;;;;;;4986125;28;20041;-65
2021/06/19 11:43:37;;;;;;;15.20;13.85;;;;;;;;;;4994736;28;20125;-65
2021/06/19 11:46:23;;;;;;;15.60;14.20;;;;;;;;;;4994558;28;20508;-64
2021/06/19 11:49:09;;;;;;;14.82;13.55;;;;;;;;;;4980620;28;20129;-64
2021/06/19 11:51:54;;;;;;;15.65;14.15;;;;;;;;;;4975098;28;20047;-64
2021/06/19 11:54:44;;;;;;;14.32;13.02;;;;;;;;;;4975016;28;20047;-65
2021/06/19 11:57:30;;;;;;;16.10;14.48;;;;;;;;;;4974975;28;20054;-65
2021/06/19 12:00:19;;;;;;;17.30;15.57;;;;;;;;;;4974657;28;20051;-65
2021/06/19 12:03:04;;;;;;;16.25;14.95;;;;;;;;;;4974980;28;20038;-64
2021/06/19 12:05:50;;;;;;;14.50;13.23;;;;;;;;;;4973772;28;20516;-64
2021/06/19 12:08:35;;;;;;;15.88;14.48;;;;;;;;;;4971830;28;20185;-64
2021/06/19 12:11:30;;;;;;;14.77;13.57;;;;;;;;;;4955337;29;20043;-64
2021/06/19 12:14:20;;;;;;;14.50;13.40;;;;;;;;;;4955283;28;20126;-64
2021/06/19 12:17:06;;;;;;;14.70;13.30;;;;;;;;;;4955518;29;20133;-65
2021/06/19 12:19:51;;;;;;;13.85;12.65;;;;;;;;;;4964222;28;20115;-64
2021/06/19 12:22:37;;;;;;;13.63;12.43;;;;;;;;;;4974682;28;20050;-64
2021/06/19 12:25:32;;;;;;;14.50;13.30;;;;;;;;;;4974795;28;20053;-64
2021/06/19 12:28:22;;;;;;;14.25;13.05;;;;;;;;;;4977581;28;20038;-64
2021/06/19 12:31:07;;;;;;;13.57;12.10;;;;;;;;;;4976367;28;20084;-64
2021/06/19 12:33:56;;;;;;;12.77;11.77;;;;;;;;;;4984188;28;20170;-64
2021/06/19 12:36:41;;;;;;;14.25;12.95;;;;;;;;;;4984354;28;20061;-64
2021/06/19 12:39:29;;;;;;;14.80;13.50;;;;;;;;;;4993737;28;20109;-64
2021/06/19 12:42:29;;;;;;;13.73;12.55;;;;;;;;;;4983415;28;20061;-65
2021/06/19 12:45:15;;;;;;;15.30;13.93;;;;;;;;;;4981227;28;20050;-64
2021/06/19 12:48:03;;;;;;;15.25;13.75;;;;;;;;;;4975047;28;20054;-64
2021/06/19 12:50:48;;;;;;;14.10;12.90;;;;;;;;;;4981525;28;20066;-64
2021/06/19 12:53:36;;;;;;;14.50;13.05;;;;;;;;;;4981117;28;20046;-65
2021/06/19 12:56:21;;;;;;;14.35;13.07;;;;;;;;;;4981420;28;20189;-65
2021/06/19 12:59:07;;;;;;;14.27;13.05;;;;;;;;;;4982579;28;20409;-65
2021/06/19 13:02:08;;;;;;;12.75;11.75;;;;;;;;;;4982987;28;20069;-65
2021/06/19 13:04:53;;;;;;;13.60;12.45;;;;;;;;;;4983050;28;20084;-65
2021/06/19 13:07:38;;;;;;;13.40;12.20;;;;;;;;;;5002818;28;20049;-64
2021/06/19 13:10:30;;;;;;;13.20;12.15;;;;;;;;;;4992802;28;20049;-64
2021/06/19 13:13:16;;;;;;;13.10;12.00;;;;;;;;;;4981166;28;20093;-64
2021/06/19 13:16:01;;;;;;;13.60;12.50;;;;;;;;;;4976312;28;20042;-65
2021/06/19 13:18:59;;;;;;;13.25;12.10;;;;;;;;;;4973388;28;20589;-64
2021/06/19 13:21:45;;;;;;;13.43;12.23;;;;;;;;;;4978443;28;20543;-63
2021/06/19 13:24:32;;;;;;;13.15;12.00;;;;;;;;;;4973959;28;20054;-64
2021/06/19 13:27:19;;;;;;;13.52;12.35;;;;;;;;;;4980011;28;20045;-63
2021/06/19 13:30:05;;;;;;;14.73;13.45;;;;;;;;;;4981015;28;20054;-64
2021/06/19 13:32:58;;;;;;;15.77;14.23;;;;;;;;;;4985653;28;20080;-64
2021/06/19 13:35:47;;;;;;;14.23;12.93;;;;;;;;;;4993992;28;20054;-63
2021/06/19 13:38:48;;;;;;;13.65;12.45;;;;;;;;;;4992869;28;20217;-63
2021/06/19 13:41:34;;;;;;;13.17;11.97;;;;;;;;;;4992325;28;20518;-63
2021/06/19 13:44:25;;;;;;;13.48;12.38;;;;;;;;;;4990682;28;20313;-63
2021/06/19 13:47:11;;;;;;;13.38;12.13;;;;;;;;;;4977338;28;20082;-63
2021/06/19 13:49:58;;;;;;;13.13;11.90;;;;;;;;;;4977953;28;20166;-63
2021/06/19 13:52:45;;;;;;;13.15;12.02;;;;;;;;;;4977381;28;20055;-63
2021/06/19 13:55:31;;;;;;;13.27;12.18;;;;;;;;;;4973716;28;20053;-63
2021/06/19 13:58:16;;;;;;;13.75;12.55;;;;;;;;;;4983409;28;20180;-63
2021/06/19 14:01:03;;;;;;;15.20;13.73;;;;;;;;;;4984434;28;20065;-63
2021/06/19 14:03:48;;;;;;;14.30;13.00;;;;;;;;;;4985425;28;20058;-63
2021/06/19 14:06:33;;;;;;;14.13;12.93;;;;;;;;;;4979921;28;20520;-63
2021/06/19 14:09:19;;;;;;;14.35;13.15;;;;;;;;;;4973471;28;20074;-63
2021/06/19 14:12:06;;;;;;;12.98;11.23;;;;;;;;;;4975486;28;20431;-63
2021/06/19 14:14:51;;;;;;;12.45;11.27;;;;;;;;;;4974853;28;20057;-63
2021/06/19 14:17:36;;;;;;;12.13;10.35;;;;;;;;;;4982737;28;20524;-63
2021/06/19 14:20:21;;;;;;;11.18;10.02;;;;;;;;;;4984284;28;20058;-62
2021/06/19 14:23:07;;;;;;;11.70;10.60;;;;;;;;;;4984561;28;20057;-62
2021/06/19 14:25:52;;;;;;;12.35;11.23;;;;;;;;;;4986019;28;20049;-61
2021/06/19 14:28:38;;;;;;;10.55;9.50;;;;;;;;;;4983262;28;20045;-62
2021/06/19 14:31:24;;;;;;;10.05;9.13;;;;;;;;;;4993287;28;20046;-63
2021/06/19 14:34:10;;;;;;;10.27;9.38;;;;;;;;;;4994014;28;20053;-63
2021/06/19 14:36:55;;;;;;;11.15;10.05;;;;;;;;;;4993823;28;20468;-63
2021/06/19 14:39:40;;;;;;;9.85;8.95;;;;;;;;;;4974049;28;20062;-63
2021/06/19 14:42:25;;;;;;;9.93;8.98;;;;;;;;;;4973780;28;20190;-63
2021/06/19 14:45:11;;;;;;;9.32;8.43;;;;;;;;;;4973395;28;20544;-63
2021/06/19 14:47:56;;;;;;;9.02;8.13;;;;;;;;;;4974253;28;20075;-63
2021/06/19 14:50:41;;;;;;;9.50;8.45;;;;;;;;;;4972422;28;20169;-63
2021/06/19 14:53:27;;;;;;;8.95;8.15;;;;;;;;;;4972513;28;20045;-63
2021/06/19 14:56:13;;;;;;;9.35;8.55;;;;;;;;;;4981534;28;20125;-63
2021/06/19 14:58:58;;;;;;;7.65;7.05;;;;;;;;;;4974143;28;20055;-63
2021/06/19 15:01:43;;;;;;;8.52;7.72;;;;;;;;;;4982121;28;20076;-63
2021/06/19 15:04:29;;;;;;;9.13;8.18;;;;;;;;;;4981919;28;20051;-63
2021/06/19 15:07:14;;;;;;;8.13;7.13;;;;;;;;;;4980718;28;20426;-63
2021/06/19 15:09:59;;;;;;;8.27;7.43;;;;;;;;;;4981364;28;20054;-63
2021/06/19 15:12:44;;;;;;;9.00;8.30;;;;;;;;;;4973913;28;20556;-63
2021/06/19 15:15:30;;;;;;;9.63;8.73;;;;;;;;;;4972911;28;20055;-63
2021/06/19 15:18:15;;;;;;;10.82;9.57;;;;;;;;;;4972533;28;20057;-63
2021/06/19 15:21:00;;;;;;;9.75;8.85;;;;;;;;;;4973004;28;20190;-62
2021/06/19 15:23:45;;;;;;;10.57;9.68;;;;;;;;;;4973605;28;20066;-63
2021/06/19 15:26:31;;;;;;;10.73;9.73;;;;;;;;;;4989749;28;20058;-63
2021/06/19 15:29:16;;;;;;;10.50;9.35;;;;;;;;;;4973065;28;20057;-63
2021/06/19 15:32:02;;;;;;;12.18;11.02;;;;;;;;;;4973676;28;20047;-63
2021/06/19 15:34:47;;;;;;;10.40;9.50;;;;;;;;;;4973044;28;20053;-63
2021/06/19 15:37:33;;;;;;;10.50;9.50;;;;;;;;;;4971443;28;20050;-62
2021/06/19 15:40:18;;;;;;;10.65;9.75;;;;;;;;;;4967559;28;20523;-62
2021/06/19 15:43:03;;;;;;;10.40;9.50;;;;;;;;;;4976081;28;20100;-62
2021/06/19 15:45:49;;;;;;;11.23;10.20;;;;;;;;;;4981255;28;20097;-62
2021/06/19 15:48:34;;;;;;;11.98;10.80;;;;;;;;;;4980902;28;20085;-62
2021/06/19 15:51:21;;;;;;;11.80;10.60;;;;;;;;;;4981974;28;20074;-62
2021/06/19 15:54:08;;;;;;;11.65;10.65;;;;;;;;;;4979898;28;20049;-62
2021/06/19 15:56:54;;;;;;;10.65;9.65;;;;;;;;;;4982952;28;20425;-62
2021/06/19 15:59:39;;;;;;;11.43;10.43;;;;;;;;;;4975259;28;21211;-62
2021/06/19 16:02:24;;;;;;;11.35;10.45;;;;;;;;;;4979588;28;20051;-62
2021/06/19 16:05:10;;;;;;;11.27;10.07;;;;;;;;;;4982528;28;20706;-63
2021/06/19 16:07:55;;;;;;;10.63;9.82;;;;;;;;;;4978797;28;20440;-62
2021/06/19 16:10:40;;;;;;;11.80;10.88;;;;;;;;;;4977922;28;20069;-62
2021/06/19 16:13:26;;;;;;;12.00;11.02;;;;;;;;;;4974577;28;20049;-63
2021/06/19 16:16:11;;;;;;;11.85;10.80;;;;;;;;;;4978104;28;20054;-63